Time;durP1;ratioP1;P1;durP2;ratioP2;P2;SDS_P1;SDS_P2;PMS_P1;PMS_P2;Temp;Humidity;BMP_temperature;BMP_pressure;BME280_temperature;BME280_humidity;BME280_pressure;Samples;Min_cycle;Max_cycle;Signal;HPM_P1;HPM_P2
2023/08/01 00:04:14;;;;;;;2.75;2.33;;;;;15.80;99465.00;;;;10385315;28;20591;-78
2023/08/01 00:09:16;;;;;;;5.32;2.85;;;;;15.70;99469.00;;;;10366577;28;20210;-79
2023/08/01 00:14:20;;;;;;;3.92;2.78;;;;;15.70;99464.00;;;;10393575;28;20279;-79
2023/08/01 00:19:21;;;;;;;4.70;2.65;;;;;15.70;99460.00;;;;10376653;28;20675;-78
2023/08/01 00:24:22;;;;;;;5.35;3.40;;;;;15.60;99464.00;;;;10377431;28;20533;-79
2023/08/01 00:29:24;;;;;;;7.22;3.45;;;;;15.60;99468.00;;;;10391713;28;21257;-77
2023/08/01 00:34:25;;;;;;;7.18;3.35;;;;;15.60;99490.00;;;;10408849;28;20312;-77
2023/08/01 00:39:29;;;;;;;7.70;4.03;;;;;15.60;99489.00;;;;10373155;28;21529;-78
2023/08/01 00:44:30;;;;;;;8.07;3.60;;;;;15.60;99484.00;;;;10408666;28;20658;-78
2023/08/01 00:49:32;;;;;;;11.25;4.22;;;;;15.60;99472.00;;;;10377872;28;20240;-78
2023/08/01 00:54:36;;;;;;;10.15;4.05;;;;;15.60;99475.00;;;;10365328;28;20564;-79
2023/08/01 00:59:38;;;;;;;9.82;4.28;;;;;15.60;99452.00;;;;10404216;28;20217;-79
2023/08/01 01:04:39;;;;;;;10.52;4.63;;;;;15.50;99472.00;;;;10391040;28;20212;-77
2023/08/01 01:09:41;;;;;;;11.70;5.40;;;;;15.40;99470.00;;;;10376467;28;20262;-78
2023/08/01 01:14:42;;;;;;;9.52;4.63;;;;;15.30;99457.00;;;;10412131;28;20205;-78
2023/08/01 01:19:44;;;;;;;9.10;4.55;;;;;15.30;99466.00;;;;10372350;28;20220;-78
2023/08/01 01:24:47;;;;;;;10.02;5.38;;;;;15.20;99467.00;;;;10398238;28;20456;-78
2023/08/01 01:29:49;;;;;;;15.70;5.38;;;;;15.10;99466.00;;;;10381173;28;20903;-78
2023/08/01 01:34:51;;;;;;;14.77;6.07;;;;;15.10;99463.00;;;;10395845;28;20204;-78
2023/08/01 01:39:52;;;;;;;13.43;6.50;;;;;15.10;99474.00;;;;10412695;28;20236;-78
2023/08/01 01:44:53;;;;;;;12.20;6.65;;;;;15.20;99464.00;;;;10414871;28;20413;-79
2023/08/01 01:49:55;;;;;;;15.10;6.82;;;;;15.20;99456.00;;;;10361118;28;20679;-79
2023/08/01 01:54:56;;;;;;;15.35;6.93;;;;;15.20;99468.00;;;;10415958;28;20260;-79
2023/08/01 01:59:58;;;;;;;21.23;7.50;;;;;15.20;99466.00;;;;10402761;28;20307;-78
2023/08/01 02:04:59;;;;;;;19.25;7.32;;;;;15.20;99464.00;;;;10394295;28;20225;-78
2023/08/01 02:10:01;;;;;;;19.02;8.10;;;;;15.10;99469.00;;;;10394082;28;21934;-78
2023/08/01 02:15:07;;;;;;;13.45;7.40;;;;;15.10;99474.00;;;;10377241;28;20805;-79
2023/08/01 02:20:09;;;;;;;12.82;7.93;;;;;15.10;99478.00;;;;10395372;28;20239;-78
2023/08/01 02:25:11;;;;;;;16.08;7.75;;;;;15.20;99482.00;;;;10381140;28;20294;-78
2023/08/01 02:30:12;;;;;;;17.50;8.02;;;;;15.20;99483.00;;;;10416152;28;20208;-78
2023/08/01 02:35:14;;;;;;;18.80;8.38;;;;;15.20;99481.00;;;;10411496;28;20239;-78
2023/08/01 02:40:15;;;;;;;17.70;9.43;;;;;15.20;99479.00;;;;10397007;28;20232;-78
2023/08/01 02:45:17;;;;;;;18.42;9.60;;;;;15.20;99488.00;;;;10419173;28;20220;-78
2023/08/01 02:50:18;;;;;;;17.17;8.80;;;;;15.20;99491.00;;;;10390304;28;20327;-77
2023/08/01 02:55:19;;;;;;;23.17;11.05;;;;;15.20;99495.00;;;;10397217;28;20202;-78
2023/08/01 03:00:21;;;;;;;15.50;9.90;;;;;15.20;99497.00;;;;10380471;28;20236;-77
2023/08/01 03:05:22;;;;;;;21.70;10.70;;;;;15.20;99502.00;;;;10397106;28;20227;-79
2023/08/01 03:10:23;;;;;;;16.52;10.50;;;;;15.20;99500.00;;;;10395278;28;20203;-78
2023/08/01 03:15:31;;;;;;;21.63;11.68;;;;;15.20;99497.00;;;;10361469;28;20901;-78
2023/08/01 03:20:33;;;;;;;28.05;12.02;;;;;15.20;99496.00;;;;10413785;28;20221;-78
2023/08/01 03:25:35;;;;;;;16.17;10.25;;;;;15.10;99496.00;;;;10396516;28;20666;-78
2023/08/01 03:30:36;;;;;;;26.10;11.00;;;;;15.10;99493.00;;;;10389450;28;20205;-78
2023/08/01 03:35:37;;;;;;;23.88;11.43;;;;;15.10;99496.00;;;;10398938;28;20201;-77
2023/08/01 03:40:39;;;;;;;25.08;12.05;;;;;15.10;99500.00;;;;10376886;28;20285;-78
2023/08/01 03:45:40;;;;;;;22.45;11.55;;;;;15.10;99497.00;;;;10408228;28;20207;-78
2023/08/01 03:50:42;;;;;;;24.83;12.25;;;;;15.00;99488.00;;;;10410898;28;20875;-79
2023/08/01 03:55:47;;;;;;;21.80;12.45;;;;;15.00;99502.00;;;;10394733;28;20225;-79
2023/08/01 04:00:49;;;;;;;24.65;11.75;;;;;15.00;99505.00;;;;10393174;28;20318;-78
2023/08/01 04:05:50;;;;;;;34.38;13.05;;;;;15.10;99509.00;;;;10398587;28;21777;-78
2023/08/01 04:10:51;;;;;;;26.08;10.88;;;;;15.00;99498.00;;;;10418253;28;20209;-77
2023/08/01 04:15:52;;;;;;;33.47;11.85;;;;;15.00;99506.00;;;;10377563;28;20311;-78
2023/08/01 04:20:54;;;;;;;24.80;12.63;;;;;15.00;99510.00;;;;10375454;28;20241;-79
2023/08/01 04:25:55;;;;;;;25.13;13.27;;;;;15.10;99514.00;;;;10382574;28;20216;-78
2023/08/01 04:30:56;;;;;;;25.67;12.60;;;;;15.00;99493.00;;;;10412273;28;20756;-79
2023/08/01 04:35:58;;;;;;;30.38;13.43;;;;;15.00;99499.00;;;;10389983;28;20241;-78
2023/08/01 04:41:00;;;;;;;22.98;13.27;;;;;15.10;99503.00;;;;10412793;28;20406;-78
2023/08/01 04:46:01;;;;;;;25.33;12.77;;;;;15.20;99499.00;;;;10375506;28;20213;-78
2023/08/01 04:51:03;;;;;;;22.17;12.45;;;;;15.20;99495.00;;;;10393809;28;20209;-79
2023/08/01 04:56:04;;;;;;;22.45;11.98;;;;;15.20;99506.00;;;;10361134;28;21511;-77
2023/08/01 05:01:05;;;;;;;26.95;12.23;;;;;15.40;99516.00;;;;10393097;28;20240;-79
2023/08/01 05:06:07;;;;;;;28.92;11.77;;;;;15.40;99515.00;;;;10370368;28;20628;-79
2023/08/01 05:11:08;;;;;;;26.23;13.05;;;;;15.40;99514.00;;;;10392010;28;20203;-78
2023/08/01 05:16:09;;;;;;;26.20;11.98;;;;;15.50;99510.00;;;;10395343;28;20216;-76
2023/08/01 05:21:11;;;;;;;22.58;12.23;;;;;15.60;99518.00;;;;10412021;28;20383;-77
2023/08/01 05:26:12;;;;;;;23.00;11.20;;;;;15.80;99515.00;;;;10407092;28;20959;-79
2023/08/01 05:31:14;;;;;;;22.50;11.18;;;;;16.10;99519.00;;;;10378471;28;20202;-79
2023/08/01 05:36:15;;;;;;;19.90;10.15;;;;;16.00;99513.00;;;;10400757;28;20231;-79
2023/08/01 05:41:17;;;;;;;22.15;11.05;;;;;16.00;99521.00;;;;10406369;28;20355;-79
2023/08/01 05:46:21;;;;;;;25.30;11.82;;;;;16.20;99534.00;;;;10371382;28;20220;-79
2023/08/01 05:51:22;;;;;;;21.15;10.95;;;;;16.30;99541.00;;;;10402057;28;20647;-79
2023/08/01 05:56:24;;;;;;;24.00;10.50;;;;;16.30;99532.00;;;;10404189;28;20357;-79
2023/08/01 06:01:25;;;;;;;21.15;10.40;;;;;16.30;99528.00;;;;10384580;28;20260;-79
2023/08/01 06:06:26;;;;;;;20.83;11.68;;;;;16.60;99541.00;;;;10389612;28;20215;-79
2023/08/01 06:11:28;;;;;;;18.63;10.55;;;;;17.50;99525.00;;;;10403185;28;20197;-79
2023/08/01 06:16:29;;;;;;;21.30;9.60;;;;;17.70;99536.00;;;;10400488;28;20698;-79
2023/08/01 06:21:30;;;;;;;12.88;8.18;;;;;17.40;99538.00;;;;10385081;28;20225;-79
2023/08/01 06:26:31;;;;;;;22.33;9.90;;;;;17.40;99553.00;;;;10402698;28;20232;-79
2023/08/01 06:31:33;;;;;;;19.88;8.98;;;;;17.30;99561.00;;;;10400542;28;20238;-80
2023/08/01 06:36:35;;;;;;;16.05;8.45;;;;;17.70;99566.00;;;;10405716;28;20866;-76
2023/08/01 06:41:36;;;;;;;14.07;9.27;;;;;17.70;99569.00;;;;10440483;28;20221;-78
2023/08/01 06:46:38;;;;;;;20.10;9.95;;;;;18.20;99571.00;;;;10432596;28;21320;-79
2023/08/01 06:51:41;;;;;;;22.80;9.60;;;;;18.30;99568.00;;;;10414856;28;20205;-78
2023/08/01 06:56:47;;;;;;;17.42;8.35;;;;;18.10;99570.00;;;;10386787;28;20202;-78
2023/08/01 07:01:48;;;;;;;20.92;8.25;;;;;17.90;99569.00;;;;10374282;28;21176;-80
2023/08/01 07:06:49;;;;;;;15.05;8.07;;;;;18.90;99568.00;;;;10374934;28;20942;-80
2023/08/01 07:11:51;;;;;;;16.73;7.50;;;;;20.00;99568.00;;;;10438502;28;20293;-82
2023/08/01 07:16:52;;;;;;;13.82;6.22;;;;;20.30;99575.00;;;;10428812;28;20208;-81
2023/08/01 07:21:54;;;;;;;11.18;5.88;;;;;20.00;99584.00;;;;10413607;28;20277;-80
2023/08/01 07:26:58;;;;;;;12.32;6.15;;;;;19.80;99574.00;;;;10403297;28;20763;-80
2023/08/01 07:31:59;;;;;;;9.27;4.70;;;;;20.10;99582.00;;;;10406409;28;20221;-80
2023/08/01 07:37:01;;;;;;;10.98;5.65;;;;;20.50;99594.00;;;;10395784;28;20205;-78
2023/08/01 07:42:06;;;;;;;14.30;5.50;;;;;20.40;99595.00;;;;10398035;28;20223;-79
2023/08/01 07:47:07;;;;;;;11.20;5.10;;;;;20.30;99596.00;;;;10376899;28;20204;-79
2023/08/01 07:52:09;;;;;;;9.93;5.45;;;;;19.70;99612.00;;;;10413618;28;20835;-78
2023/08/01 07:57:13;;;;;;;11.77;5.10;;;;;19.70;99600.00;;;;10396820;28;20205;-78
2023/08/01 08:02:14;;;;;;;16.02;6.15;;;;;19.90;99615.00;;;;10385765;28;20262;-77
2023/08/01 08:07:16;;;;;;;12.43;7.03;;;;;19.30;99610.00;;;;10394332;28;20219;-79
2023/08/01 08:12:17;;;;;;;13.60;6.68;;;;;19.50;99617.00;;;;10389291;28;20695;-78
2023/08/01 08:17:19;;;;;;;13.68;6.68;;;;;20.10;99613.00;;;;10392634;28;21014;-78
2023/08/01 08:22:20;;;;;;;11.18;5.55;;;;;21.00;99625.00;;;;10393027;28;21586;-79
2023/08/01 08:27:22;;;;;;;10.38;5.63;;;;;21.20;99624.00;;;;10414219;28;20391;-78
2023/08/01 08:32:23;;;;;;;8.20;5.13;;;;;21.10;99630.00;;;;10394275;28;20205;-78
2023/08/01 08:37:25;;;;;;;8.32;4.45;;;;;21.20;99639.00;;;;10408704;28;20229;-77
2023/08/01 08:42:26;;;;;;;13.13;4.32;;;;;21.00;99638.00;;;;10396804;28;20439;-78
2023/08/01 08:47:31;;;;;;;8.43;3.80;;;;;21.90;99643.00;;;;10409624;28;20232;-77
2023/08/01 08:52:33;;;;;;;8.68;3.15;;;;;23.20;99640.00;;;;10377882;28;20810;-77
2023/08/01 08:57:35;;;;;;;11.48;3.60;;;;;24.00;99640.00;;;;10397235;28;20196;-78
2023/08/01 09:02:36;;;;;;;9.43;3.63;;;;;25.10;99651.00;;;;10393651;28;20675;-80
2023/08/01 09:07:42;;;;;;;7.72;3.30;;;;;25.40;99640.00;;;;10413946;28;20205;-78
2023/08/01 09:12:43;;;;;;;6.43;3.70;;;;;25.40;99647.00;;;;10435150;28;20215;-79
2023/08/01 09:17:52;;;;;;;7.38;3.72;;;;;25.60;99641.00;;;;10415407;28;20277;-78
2023/08/01 09:22:53;;;;;;;5.10;2.95;;;;;24.80;99640.00;;;;10400939;28;20220;-79
2023/08/01 09:27:55;;;;;;;5.70;2.92;;;;;24.80;99644.00;;;;10386689;28;20228;-78
2023/08/01 09:32:57;;;;;;;4.72;3.03;;;;;24.00;99647.00;;;;10400754;28;20247;-77
2023/08/01 09:38:00;;;;;;;6.47;2.75;;;;;24.40;99651.00;;;;10399198;28;20846;-78
2023/08/01 09:43:01;;;;;;;6.97;2.78;;;;;23.70;99654.00;;;;10396827;28;20625;-79
2023/08/01 09:48:03;;;;;;;7.43;2.78;;;;;23.70;99643.00;;;;10380668;28;20588;-79
2023/08/01 09:53:08;;;;;;;6.93;2.65;;;;;25.20;99644.00;;;;10417915;28;20348;-78
2023/08/01 09:58:12;;;;;;;5.22;2.85;;;;;24.90;99639.00;;;;10413290;28;20229;-78
2023/08/01 10:03:14;;;;;;;6.18;2.97;;;;;25.80;99655.00;;;;10409650;28;20284;-78
2023/08/01 10:08:16;;;;;;;5.35;2.70;;;;;26.40;99663.00;;;;10419762;28;20919;-78
2023/08/01 10:13:20;;;;;;;6.05;2.70;;;;;26.00;99647.00;;;;10405498;28;20205;-77
2023/08/01 10:18:23;;;;;;;4.53;2.88;;;;;27.10;99650.00;;;;10414775;28;20227;-78
2023/08/01 10:23:25;;;;;;;7.35;3.20;;;;;26.10;99632.00;;;;10422146;28;20607;-78
2023/08/01 10:28:37;;;;;;;9.00;3.38;;;;;25.70;99657.00;;;;10381699;28;20205;-79
2023/08/01 10:33:41;;;;;;;4.70;2.63;;;;;25.60;99656.00;;;;10379616;28;20292;-79
2023/08/01 10:39:20;;;;;;;6.07;3.42;;;;;25.40;99665.00;;;;10418071;28;20248;-79
2023/08/01 10:44:21;;;;;;;7.47;2.80;;;;;25.60;99664.00;;;;10395739;28;20219;-79
2023/08/01 10:49:42;;;;;;;6.60;2.90;;;;;25.10;99658.00;;;;10393883;28;20843;-78
2023/08/01 10:54:44;;;;;;;7.13;2.45;;;;;24.70;99660.00;;;;10397082;28;20326;-78
2023/08/01 10:59:45;;;;;;;6.07;2.72;;;;;24.80;99671.00;;;;10380048;28;20221;-79
2023/08/01 11:05:01;;;;;;;5.20;2.33;;;;;25.50;99673.00;;;;10390654;28;20201;-78
2023/08/01 11:10:13;;;;;;;6.88;1.95;;;;;26.00;99668.00;;;;10409103;28;20545;-78
2023/08/01 11:15:15;;;;;;;7.15;1.85;;;;;26.10;99682.00;;;;10399866;28;20209;-77
2023/08/01 11:20:18;;;;;;;4.57;2.38;;;;;25.50;99690.00;;;;10414597;28;20232;-78
2023/08/01 11:25:31;;;;;;;6.43;2.03;;;;;23.50;99698.00;;;;10411356;28;20224;-78
2023/08/01 11:30:33;;;;;;;6.75;2.10;;;;;22.50;99706.00;;;;10376925;28;20748;-79
2023/08/01 11:35:34;;;;;;;4.90;1.95;;;;;22.90;99674.00;;;;10407035;28;20205;-78
2023/08/01 11:40:37;;;;;;;8.23;2.40;;;;;23.40;99692.00;;;;10401221;28;20233;-79
2023/08/01 11:45:48;;;;;;;6.05;2.70;;;;;24.40;99698.00;;;;10432144;28;20262;-77
2023/08/01 11:50:56;;;;;;;5.82;2.65;;;;;24.90;99701.00;;;;10419052;28;21114;-79
2023/08/01 11:55:57;;;;;;;6.13;2.70;;;;;25.40;99705.00;;;;10435134;28;21640;-78
2023/08/01 12:01:10;;;;;;;5.80;2.28;;;;;24.50;99705.00;;;;10432412;28;20935;-79
2023/08/01 12:06:13;;;;;;;6.45;2.58;;;;;23.70;99701.00;;;;10435262;28;20212;-78
2023/08/01 12:11:26;;;;;;;4.78;2.00;;;;;23.30;99709.00;;;;10410608;28;20196;-80
2023/08/01 12:16:27;;;;;;;7.53;2.13;;;;;23.90;99714.00;;;;10411223;28;21902;-78
2023/08/01 12:21:29;;;;;;;2.60;1.42;;;;;25.90;99695.00;;;;10400450;28;20224;-79
2023/08/01 12:26:30;;;;;;;3.80;1.67;;;;;25.60;99687.00;;;;10376538;28;20309;-78
2023/08/01 12:31:32;;;;;;;4.03;1.90;;;;;24.20;99715.00;;;;10376154;28;20693;-77
2023/08/01 12:36:33;;;;;;;3.15;1.33;;;;;23.00;99716.00;;;;10393319;28;22395;-78
2023/08/01 12:41:35;;;;;;;4.80;1.50;;;;;22.10;99716.00;;;;10406571;28;20233;-79
2023/08/01 12:46:36;;;;;;;5.80;1.73;;;;;22.20;99728.00;;;;10401791;28;20197;-77
2023/08/01 12:51:38;;;;;;;3.00;1.30;;;;;22.30;99727.00;;;;10377085;28;21609;-82
2023/08/01 12:56:39;;;;;;;4.47;1.77;;;;;22.80;99732.00;;;;10390808;28;21003;-78
2023/08/01 13:01:41;;;;;;;3.85;1.65;;;;;23.30;99743.00;;;;10413785;28;20236;-83
2023/08/01 13:06:44;;;;;;;4.95;1.50;;;;;23.50;99738.00;;;;10410585;28;20443;-81
2023/08/01 13:11:46;;;;;;;5.90;1.60;;;;;23.50;99741.00;;;;10409171;28;20200;-79
2023/08/01 13:16:47;;;;;;;2.83;1.50;;;;;23.60;99748.00;;;;10424513;28;20813;-81
2023/08/01 13:21:48;;;;;;;6.55;1.95;;;;;25.00;99734.00;;;;10433483;28;20227;-77
2023/08/01 13:26:49;;;;;;;5.13;1.80;;;;;25.50;99745.00;;;;10430554;28;20224;-78
2023/08/01 13:31:51;;;;;;;3.67;1.60;;;;;25.00;99741.00;;;;10431483;28;20818;-82
2023/08/01 13:36:53;;;;;;;5.05;2.05;;;;;23.80;99757.00;;;;10413921;28;20789;-82
2023/08/01 13:41:54;;;;;;;4.35;1.60;;;;;22.70;99756.00;;;;10411917;28;20228;-83
2023/08/01 13:46:56;;;;;;;4.00;1.95;;;;;21.80;99748.00;;;;10432766;28;20576;-80
2023/08/01 13:51:58;;;;;;;5.75;1.92;;;;;20.90;99740.00;;;;10390410;28;20200;-80
2023/08/01 13:57:00;;;;;;;3.50;1.67;;;;;20.50;99746.00;;;;10423356;28;21892;-81
2023/08/01 14:02:01;;;;;;;4.20;2.13;;;;;20.30;99755.00;;;;10403446;28;20282;-81
2023/08/01 14:07:03;;;;;;;5.05;1.52;;;;;20.80;99759.00;;;;10390324;28;20890;-82
2023/08/01 14:12:05;;;;;;;5.38;2.00;;;;;22.30;99747.00;;;;10399263;28;20701;-78
2023/08/01 14:17:06;;;;;;;3.70;1.73;;;;;21.80;99751.00;;;;10416311;28;20275;-81
2023/08/01 14:22:07;;;;;;;5.60;2.20;;;;;21.20;99763.00;;;;10384808;28;21369;-77
2023/08/01 14:27:08;;;;;;;6.55;1.90;;;;;20.30;99769.00;;;;10423143;28;20232;-81
2023/08/01 14:32:10;;;;;;;5.07;2.03;;;;;19.40;99770.00;;;;10392269;28;20343;-80
2023/08/01 14:37:11;;;;;;;5.82;2.53;;;;;19.00;99804.00;;;;10381100;28;20381;-81
2023/08/01 14:42:12;;;;;;;3.15;1.25;;;;;18.90;99805.00;;;;10396657;28;20918;-80
2023/08/01 14:47:13;;;;;;;7.22;2.55;;;;;18.40;99822.00;;;;10402846;28;20205;-78
2023/08/01 14:52:15;;;;;;;6.68;2.50;;;;;18.30;99809.00;;;;10420774;28;20205;-80
2023/08/01 14:57:16;;;;;;;6.72;2.60;;;;;18.80;99805.00;;;;10400707;28;20213;-78
2023/08/01 15:02:18;;;;;;;7.35;2.35;;;;;19.20;99808.00;;;;10401380;28;20610;-78
2023/08/01 15:07:19;;;;;;;6.53;1.90;;;;;19.00;99805.00;;;;10388994;28;20238;-82
2023/08/01 15:12:26;;;;;;;5.10;2.80;;;;;18.90;99809.00;;;;10410930;28;20238;-81
2023/08/01 15:17:27;;;;;;;7.28;3.53;;;;;18.40;99807.00;;;;10381246;28;20284;-78
2023/08/01 15:22:28;;;;;;;4.97;2.85;;;;;17.50;99827.00;;;;10388246;28;20570;-78
2023/08/01 15:27:30;;;;;;;6.13;1.98;;;;;17.50;99838.00;;;;10413922;28;20624;-80
2023/08/01 15:32:31;;;;;;;6.47;2.03;;;;;17.50;99844.00;;;;10417258;28;20209;-78
2023/08/01 15:37:32;;;;;;;8.90;2.53;;;;;17.90;99848.00;;;;10402423;28;20201;-78
2023/08/01 15:42:34;;;;;;;5.28;2.42;;;;;18.40;99836.00;;;;10416190;28;20231;-80
2023/08/01 15:47:35;;;;;;;5.43;2.10;;;;;18.60;99833.00;;;;10416869;28;20209;-77
2023/08/01 15:52:37;;;;;;;6.88;2.70;;;;;18.60;99823.00;;;;10406434;28;20594;-78
2023/08/01 15:57:38;;;;;;;7.50;2.38;;;;;18.70;99826.00;;;;10416634;28;22041;-77
2023/08/01 16:02:40;;;;;;;6.55;1.90;;;;;18.80;99823.00;;;;10422119;28;20362;-78
2023/08/01 16:07:41;;;;;;;8.43;2.42;;;;;19.00;99827.00;;;;10400381;28;20224;-81
2023/08/01 16:12:42;;;;;;;6.85;2.55;;;;;18.90;99811.00;;;;10401950;28;20523;-80
2023/08/01 16:17:44;;;;;;;16.55;3.13;;;;;18.90;99812.00;;;;10393897;28;20205;-78
2023/08/01 16:22:46;;;;;;;7.13;2.65;;;;;18.90;99809.00;;;;10415873;28;20223;-80
2023/08/01 16:27:48;;;;;;;11.38;3.05;;;;;19.20;99819.00;;;;10393188;28;20619;-80
2023/08/01 16:32:50;;;;;;;9.05;3.10;;;;;19.60;99819.00;;;;10414154;28;20468;-77
2023/08/01 16:37:52;;;;;;;8.30;2.65;;;;;19.80;99812.00;;;;10393065;28;20912;-82
2023/08/01 16:42:54;;;;;;;6.78;2.70;;;;;19.80;99812.00;;;;10411041;28;20254;-82
2023/08/01 16:47:55;;;;;;;6.63;2.67;;;;;19.70;99811.00;;;;10382010;28;20212;-83
2023/08/01 16:52:57;;;;;;;11.60;2.17;;;;;19.60;99808.00;;;;10420479;28;20204;-82
2023/08/01 16:57:58;;;;;;;10.65;3.00;;;;;19.60;99807.00;;;;10399707;28;20953;-77
2023/08/01 17:03:00;;;;;;;7.35;1.92;;;;;19.40;99795.00;;;;10414063;28;20830;-80
2023/08/01 17:08:01;;;;;;;6.45;2.33;;;;;19.30;99799.00;;;;10393387;28;21614;-80
2023/08/01 17:13:02;;;;;;;9.40;2.78;;;;;19.10;99809.00;;;;10395086;28;20519;-77
2023/08/01 17:18:04;;;;;;;7.03;2.92;;;;;19.10;99826.00;;;;10386701;28;20208;-83
2023/08/01 17:23:06;;;;;;;19.42;3.33;;;;;19.70;99820.00;;;;10386521;28;20212;-81
2023/08/01 17:28:07;;;;;;;7.13;2.30;;;;;19.60;99831.00;;;;10392841;28;20426;-80
2023/08/01 17:33:08;;;;;;;9.38;2.53;;;;;18.90;99812.00;;;;10395291;28;20454;-83
2023/08/01 17:38:12;;;;;;;7.18;2.47;;;;;18.60;99800.00;;;;10410781;28;20929;-82
2023/08/01 17:43:14;;;;;;;9.02;2.40;;;;;18.70;99801.00;;;;10406785;28;20201;-76
2023/08/01 17:48:15;;;;;;;7.10;2.78;;;;;18.50;99799.00;;;;10406787;28;20217;-78
2023/08/01 17:53:17;;;;;;;7.78;2.92;;;;;18.70;99801.00;;;;10418015;28;21391;-80
2023/08/01 17:58:18;;;;;;;8.60;2.83;;;;;18.90;99796.00;;;;10397492;28;20622;-80
2023/08/01 18:03:19;;;;;;;12.45;3.03;;;;;19.10;99794.00;;;;10403807;28;20876;-80
2023/08/01 18:08:20;;;;;;;5.88;2.63;;;;;19.00;99799.00;;;;10402121;28;20213;-78
2023/08/01 18:13:23;;;;;;;7.57;3.03;;;;;19.00;99797.00;;;;10403836;28;21414;-78
2023/08/01 18:18:24;;;;;;;9.88;2.75;;;;;19.00;99804.00;;;;10421391;28;20224;-81
2023/08/01 18:23:26;;;;;;;7.43;2.75;;;;;19.00;99809.00;;;;10401091;28;20216;-78
2023/08/01 18:28:27;;;;;;;9.73;2.97;;;;;19.10;99807.00;;;;10405855;28;20258;-79
2023/08/01 18:33:28;;;;;;;7.47;2.50;;;;;19.00;99813.00;;;;10403911;28;20581;-78
2023/08/01 18:38:30;;;;;;;9.57;2.67;;;;;18.90;99819.00;;;;10381705;28;20573;-80
2023/08/01 18:43:32;;;;;;;8.10;2.45;;;;;18.80;99817.00;;;;10382105;28;20429;-80
2023/08/01 18:48:34;;;;;;;8.70;1.92;;;;;18.70;99829.00;;;;10418988;28;20212;-78
2023/08/01 18:53:35;;;;;;;8.55;3.00;;;;;18.60;99830.00;;;;10384263;28;20567;-80
2023/08/01 18:58:38;;;;;;;11.60;2.95;;;;;18.40;99822.00;;;;10419485;28;20891;-77
2023/08/01 19:03:42;;;;;;;9.52;2.70;;;;;18.30;99823.00;;;;10404490;28;20213;-77
2023/08/01 19:08:45;;;;;;;12.10;3.08;;;;;18.20;99823.00;;;;10399200;28;20220;-81
2023/08/01 19:13:46;;;;;;;7.53;2.45;;;;;18.00;99826.00;;;;10382953;28;20209;-78
2023/08/01 19:18:51;;;;;;;6.30;2.00;;;;;17.90;99831.00;;;;10378531;28;20343;-78
2023/08/01 19:23:53;;;;;;;9.93;3.17;;;;;17.80;99827.00;;;;10417003;28;20394;-79
2023/08/01 19:28:54;;;;;;;7.78;2.28;;;;;17.80;99826.00;;;;10398450;28;20213;-81
2023/08/01 19:33:55;;;;;;;9.38;2.75;;;;;17.90;99813.00;;;;10401555;28;20251;-78
2023/08/01 19:38:57;;;;;;;8.07;2.92;;;;;17.90;99819.00;;;;10424310;28;20229;-77
2023/08/01 19:43:58;;;;;;;9.77;2.92;;;;;17.90;99818.00;;;;10405556;28;20559;-78
2023/08/01 19:48:59;;;;;;;9.65;2.92;;;;;17.90;99825.00;;;;10421057;28;20219;-77
2023/08/01 19:54:00;;;;;;;8.23;2.30;;;;;17.90;99825.00;;;;10416023;28;20220;-81
2023/08/01 19:59:02;;;;;;;5.57;2.20;;;;;17.90;99820.00;;;;10401090;28;20224;-77
2023/08/01 20:04:04;;;;;;;10.75;2.90;;;;;17.90;99822.00;;;;10375387;28;20853;-77
2023/08/01 20:09:06;;;;;;;8.68;3.08;;;;;17.80;99803.00;;;;10405639;28;20232;-79
2023/08/01 20:14:07;;;;;;;8.10;2.33;;;;;17.70;99803.00;;;;10402300;28;20212;-82
2023/08/01 20:19:12;;;;;;;11.50;2.72;;;;;17.50;99807.00;;;;10386942;28;21136;-79
2023/08/01 20:24:14;;;;;;;6.45;2.05;;;;;17.40;99799.00;;;;10401057;28;20200;-82
2023/08/01 20:29:15;;;;;;;6.63;2.55;;;;;17.40;99804.00;;;;10423703;28;20200;-78
2023/08/01 20:34:17;;;;;;;4.82;2.25;;;;;17.30;99799.00;;;;10387916;28;20457;-78
2023/08/01 20:39:18;;;;;;;4.50;1.80;;;;;17.20;99800.00;;;;10401509;28;20282;-77
2023/08/01 20:44:19;;;;;;;6.63;2.15;;;;;17.00;99802.00;;;;10423132;28;20220;-79
2023/08/01 20:49:21;;;;;;;4.28;2.05;;;;;16.90;99803.00;;;;10408877;28;20202;-78
2023/08/01 20:54:22;;;;;;;2.85;1.45;;;;;16.80;99809.00;;;;10397172;28;21707;-77
2023/08/01 20:59:24;;;;;;;3.10;1.95;;;;;16.80;99812.00;;;;10417813;28;20256;-78
2023/08/01 21:04:26;;;;;;;9.45;1.92;;;;;16.70;99805.00;;;;10403283;28;21168;-81
2023/08/01 21:09:30;;;;;;;4.53;1.45;;;;;16.60;99804.00;;;;10413198;28;20251;-78
2023/08/01 21:14:32;;;;;;;2.97;1.30;;;;;16.50;99811.00;;;;10410966;28;20783;-77
2023/08/01 21:19:33;;;;;;;5.68;1.60;;;;;16.40;99824.00;;;;10382818;28;20228;-78
2023/08/01 21:24:34;;;;;;;3.60;1.60;;;;;16.40;99813.00;;;;10363062;28;20265;-78
2023/08/01 21:29:35;;;;;;;4.50;1.58;;;;;16.30;99805.00;;;;10416294;28;20270;-77
2023/08/01 21:34:37;;;;;;;6.63;2.28;;;;;16.20;99802.00;;;;10382773;28;20568;-79
2023/08/01 21:39:38;;;;;;;6.03;1.90;;;;;16.10;99797.00;;;;10417811;28;21336;-78
2023/08/01 21:44:40;;;;;;;6.70;2.10;;;;;16.00;99796.00;;;;10417384;28;20268;-81
2023/08/01 21:49:41;;;;;;;6.88;2.55;;;;;16.00;99788.00;;;;10392292;28;20205;-82
2023/08/01 21:54:42;;;;;;;6.68;2.60;;;;;16.00;99771.00;;;;10403629;28;20857;-82
2023/08/01 21:59:44;;;;;;;5.85;2.30;;;;;16.10;99771.00;;;;10411183;28;20311;-82
2023/08/01 22:04:45;;;;;;;5.78;2.30;;;;;16.20;99770.00;;;;10428082;28;20204;-78
2023/08/01 22:09:47;;;;;;;9.77;2.70;;;;;16.20;99773.00;;;;10378468;28;20204;-80
2023/08/01 22:14:48;;;;;;;5.95;2.72;;;;;16.20;99767.00;;;;10398208;28;20492;-78
2023/08/01 22:19:49;;;;;;;7.53;2.30;;;;;16.10;99772.00;;;;10407759;28;20228;-80
2023/08/01 22:24:51;;;;;;;6.72;2.58;;;;;16.00;99769.00;;;;10427282;28;20206;-77
2023/08/01 22:29:52;;;;;;;8.57;3.28;;;;;15.90;99760.00;;;;10412844;28;20359;-78
2023/08/01 22:34:54;;;;;;;5.25;2.90;;;;;15.90;99751.00;;;;10388429;28;20584;-78
2023/08/01 22:39:55;;;;;;;6.55;2.83;;;;;15.90;99740.00;;;;10386583;28;20892;-77
2023/08/01 22:44:58;;;;;;;6.15;2.80;;;;;15.90;99756.00;;;;10394163;28;20212;-79
2023/08/01 22:50:00;;;;;;;5.30;3.03;;;;;15.80;99730.00;;;;10390576;28;20915;-76
2023/08/01 22:55:08;;;;;;;8.73;2.90;;;;;15.70;99689.00;;;;10396194;28;20213;-81
2023/08/01 23:00:10;;;;;;;9.15;2.85;;;;;15.60;99694.00;;;;10366488;28;20243;-81
2023/08/01 23:05:12;;;;;;;10.73;3.03;;;;;15.60;99692.00;;;;10376693;28;20565;-78
2023/08/01 23:10:13;;;;;;;8.63;3.03;;;;;15.50;99691.00;;;;10394216;28;20328;-78
2023/08/01 23:15:14;;;;;;;7.82;2.78;;;;;15.50;99686.00;;;;10388202;28;20346;-78
2023/08/01 23:20:16;;;;;;;8.20;3.42;;;;;15.60;99676.00;;;;10387100;28;20734;-80
2023/08/01 23:25:17;;;;;;;12.65;4.03;;;;;15.70;99677.00;;;;10372263;28;20923;-77
2023/08/01 23:30:19;;;;;;;6.28;3.05;;;;;15.80;99670.00;;;;10389465;28;20354;-77
2023/08/01 23:35:20;;;;;;;5.95;3.00;;;;;15.90;99658.00;;;;10373433;28;20209;-77
2023/08/01 23:40:21;;;;;;;8.50;3.05;;;;;15.90;99655.00;;;;10395028;28;20225;-78
2023/08/01 23:51:15;;;;;;;12.20;3.88;;;;;16.10;99637.00;;;;10669869;22;20253;-76
2023/08/01 23:56:16;;;;;;;10.82;3.80;;;;;16.20;99617.00;;;;10284677;28;20207;-77
